createdAt,value
2022-12-12T00:00:06.566Z,15.23
2022-12-12T00:02:40.601Z,14.82
2022-12-12T00:05:09.315Z,15.13
2022-12-12T00:07:36.107Z,16.73
2022-12-12T00:10:03.147Z,15.88
2022-12-12T00:12:29.657Z,15.35
2022-12-12T00:14:56.494Z,15.48
2022-12-12T00:17:23.037Z,16.02
2022-12-12T00:19:49.650Z,15.75
2022-12-12T00:22:16.286Z,14.52
2022-12-12T00:24:42.848Z,14.43
2022-12-12T00:27:09.372Z,16.02
2022-12-12T00:29:36.023Z,15.82
2022-12-12T00:32:02.625Z,15.63
2022-12-12T00:34:29.200Z,15.65
2022-12-12T00:36:55.740Z,16.50
2022-12-12T00:39:23.770Z,15.70
2022-12-12T00:41:50.615Z,15.95
2022-12-12T00:44:17.279Z,16.27
2022-12-12T00:46:43.870Z,15.75
2022-12-12T00:49:10.390Z,16.58
2022-12-12T00:51:36.880Z,15.43
2022-12-12T00:54:03.417Z,15.63
2022-12-12T00:56:30.848Z,16.23
2022-12-12T00:58:57.459Z,16.38
2022-12-12T01:01:27.474Z,15.38
2022-12-12T01:03:54.286Z,18.63
2022-12-12T01:06:21.994Z,14.30
2022-12-12T01:08:48.854Z,15.13
2022-12-12T01:11:17.669Z,14.55
2022-12-12T01:13:44.538Z,14.65
2022-12-12T01:16:12.785Z,15.52
2022-12-12T01:18:40.285Z,15.48
2022-12-12T01:21:13.460Z,14.95
2022-12-12T01:23:40.302Z,15.95
2022-12-12T01:26:13.986Z,15.48
2022-12-12T01:28:40.909Z,14.85
2022-12-12T01:31:07.607Z,16.02
2022-12-12T01:33:34.389Z,15.32
2022-12-12T01:36:00.892Z,15.43
2022-12-12T01:38:27.651Z,15.77
2022-12-12T01:40:54.891Z,15.85
2022-12-12T01:43:23.300Z,15.50
2022-12-12T01:45:59.381Z,14.85
2022-12-12T01:48:34.959Z,15.88
2022-12-12T01:51:06.625Z,15.43
2022-12-12T01:53:33.769Z,15.55
2022-12-12T01:56:06.357Z,14.82
2022-12-12T01:58:34.051Z,15.13
2022-12-12T02:01:01.576Z,15.35
2022-12-12T02:03:28.234Z,15.43
2022-12-12T02:06:02.286Z,13.38
2022-12-12T02:08:30.228Z,15.02
2022-12-12T02:10:56.953Z,15.38
2022-12-12T02:13:26.632Z,14.88
2022-12-12T02:16:08.078Z,15.15
2022-12-12T02:19:09.663Z,15.75
2022-12-12T02:21:56.413Z,15.77
2022-12-12T02:24:52.409Z,15.20
2022-12-12T02:27:52.887Z,15.57
2022-12-12T02:30:31.204Z,14.70
2022-12-12T02:33:30.465Z,15.63
2022-12-12T02:36:21.730Z,15.18
2022-12-12T02:38:54.012Z,14.70
2022-12-12T02:41:35.501Z,15.45
2022-12-12T02:44:13.624Z,15.25
2022-12-12T02:46:55.737Z,15.85
2022-12-12T02:49:34.211Z,14.70
2022-12-12T02:52:01.982Z,15.48
2022-12-12T02:54:28.576Z,14.23
2022-12-12T02:57:00.085Z,15.65
2022-12-12T02:59:34.106Z,15.68
2022-12-12T03:02:31.593Z,15.68
2022-12-12T03:05:49.537Z,15.18
2022-12-12T03:08:37.857Z,14.85
2022-12-12T03:11:14.727Z,15.00
2022-12-12T03:13:51.620Z,14.98
2022-12-12T03:16:24.026Z,15.52
2022-12-12T03:18:59.680Z,15.43
2022-12-12T03:21:35.368Z,15.30
2022-12-12T03:24:29.196Z,15.05
2022-12-12T03:27:07.515Z,15.35
2022-12-12T03:29:55.327Z,14.95
2022-12-12T03:32:27.703Z,15.32
2022-12-12T03:35:03.216Z,15.25
2022-12-12T03:37:39.184Z,14.65
2022-12-12T03:40:10.264Z,15.43
2022-12-12T03:42:45.897Z,15.93
2022-12-12T03:45:27.282Z,15.18
2022-12-12T03:48:28.701Z,15.43
2022-12-12T03:51:02.423Z,15.57
2022-12-12T03:53:38.674Z,16.65
2022-12-12T03:56:19.888Z,14.05
2022-12-12T03:58:53.191Z,15.77
2022-12-12T04:01:23.692Z,15.55
2022-12-12T04:04:05.896Z,16.23
2022-12-12T04:06:42.996Z,15.25
2022-12-12T04:09:34.318Z,14.98
2022-12-12T04:12:38.410Z,14.35
2022-12-12T04:15:11.273Z,16.27
2022-12-12T04:17:43.453Z,14.95
2022-12-12T04:20:44.873Z,15.65
2022-12-12T04:23:44.003Z,14.60
2022-12-12T04:26:41.725Z,14.55
2022-12-12T04:29:30.452Z,14.95
2022-12-12T04:32:25.081Z,14.55
2022-12-12T04:35:00.158Z,15.57
2022-12-12T04:37:42.356Z,14.98
2022-12-12T04:40:13.569Z,14.75
2022-12-12T04:42:45.211Z,14.68
2022-12-12T04:45:16.758Z,14.73
2022-12-12T04:47:46.769Z,14.65
2022-12-12T04:50:14.052Z,14.82
2022-12-12T04:52:42.920Z,15.43
2022-12-12T04:55:24.385Z,14.95
2022-12-12T04:57:54.710Z,14.75
2022-12-12T05:00:23.030Z,14.45
2022-12-12T05:02:57.764Z,15.23
2022-12-12T05:05:38.812Z,14.10
2022-12-12T05:08:22.697Z,14.82
2022-12-12T05:10:56.317Z,13.68
2022-12-12T05:13:29.556Z,14.35
2022-12-12T05:15:58.596Z,15.43
2022-12-12T05:18:25.382Z,15.43
2022-12-12T05:20:52.107Z,14.80
2022-12-12T05:23:18.887Z,15.07
2022-12-12T05:25:45.671Z,15.75
2022-12-12T05:28:12.289Z,14.55
2022-12-12T05:30:38.954Z,15.25
2022-12-12T05:33:05.776Z,14.75
2022-12-12T05:35:33.899Z,14.15
2022-12-12T05:38:01.786Z,14.18
2022-12-12T05:40:28.573Z,13.90
2022-12-12T05:42:55.177Z,13.65
2022-12-12T05:45:21.945Z,14.07
2022-12-12T05:47:48.686Z,13.70
2022-12-12T05:50:15.291Z,13.93
2022-12-12T05:52:41.830Z,14.52
2022-12-12T05:55:08.598Z,14.00
2022-12-12T05:57:35.180Z,12.93
2022-12-12T06:00:02.017Z,14.13
2022-12-12T06:02:31.698Z,14.80
2022-12-12T06:04:58.387Z,14.82
2022-12-12T06:07:24.898Z,14.57
2022-12-12T06:09:51.420Z,14.60
2022-12-12T06:12:18.076Z,13.65
2022-12-12T06:14:44.587Z,13.63
2022-12-12T06:17:11.192Z,13.77
2022-12-12T06:19:37.738Z,13.00
2022-12-12T06:22:04.376Z,13.40
2022-12-12T06:24:30.936Z,12.57
2022-12-12T06:26:57.545Z,13.25
2022-12-12T06:29:24.223Z,12.85
2022-12-12T06:31:50.761Z,12.70
2022-12-12T06:34:17.326Z,14.18
2022-12-12T06:36:43.925Z,13.05
2022-12-12T06:39:10.473Z,12.57
2022-12-12T06:41:37.228Z,13.60
2022-12-12T06:44:04.417Z,14.13
2022-12-12T06:46:31.142Z,13.02
2022-12-12T06:48:58.580Z,13.15
2022-12-12T06:51:29.027Z,13.52
2022-12-12T06:53:55.963Z,14.95
2022-12-12T06:56:24.875Z,15.10
2022-12-12T06:58:52.927Z,15.50
2022-12-12T07:01:21.640Z,14.15
2022-12-12T07:03:52.440Z,14.52
2022-12-12T07:06:21.456Z,13.73
2022-12-12T07:08:48.080Z,14.55
2022-12-12T07:11:17.794Z,15.75
2022-12-12T07:13:44.695Z,13.93
2022-12-12T07:16:11.931Z,14.77
2022-12-12T07:18:38.569Z,15.88
2022-12-12T07:21:07.131Z,14.50
2022-12-12T07:23:33.969Z,16.80
2022-12-12T07:26:09.141Z,15.93
2022-12-12T07:28:38.059Z,18.52
2022-12-12T07:31:13.081Z,14.48
2022-12-12T07:33:44.059Z,14.38
2022-12-12T07:36:12.300Z,13.60
2022-12-12T07:38:39.648Z,14.48
2022-12-12T07:41:09.302Z,15.13
2022-12-12T07:43:42.891Z,17.05
2022-12-12T07:46:11.693Z,15.27
2022-12-12T07:48:38.330Z,16.65
2022-12-12T07:51:05.121Z,14.70
2022-12-12T07:53:31.696Z,13.95
2022-12-12T07:55:58.439Z,13.48
2022-12-12T07:58:25.048Z,11.63
2022-12-12T08:00:51.669Z,13.55
2022-12-12T08:03:18.189Z,13.52
2022-12-12T08:05:44.754Z,14.27
2022-12-12T08:08:11.544Z,13.05
2022-12-12T08:10:39.775Z,20.52
2022-12-12T08:13:06.713Z,14.93
2022-12-12T08:15:33.516Z,14.57
2022-12-12T08:18:00.032Z,16.40
2022-12-12T08:20:26.730Z,14.85
2022-12-12T08:22:53.329Z,15.65
2022-12-12T08:25:19.949Z,14.52
2022-12-12T08:27:46.670Z,13.73
2022-12-12T08:30:13.471Z,15.02
2022-12-12T08:32:39.979Z,15.25
2022-12-12T08:35:06.966Z,14.02
2022-12-12T08:37:33.521Z,14.85
2022-12-12T08:40:00.097Z,15.38
2022-12-12T08:42:26.757Z,14.60
2022-12-12T08:44:53.303Z,15.02
2022-12-12T08:47:19.848Z,13.80
2022-12-12T08:49:46.339Z,13.68
2022-12-12T08:52:12.919Z,14.30
2022-12-12T08:54:39.735Z,13.45
2022-12-12T08:57:06.276Z,11.90
2022-12-12T08:59:32.854Z,12.35
2022-12-12T09:01:59.488Z,12.15
2022-12-12T09:04:26.102Z,11.77
2022-12-12T09:06:52.933Z,12.52
2022-12-12T09:09:19.506Z,12.07
2022-12-12T09:11:46.237Z,12.30
2022-12-12T09:14:12.818Z,13.05
2022-12-12T09:16:39.474Z,12.13
2022-12-12T09:19:06.192Z,14.27
2022-12-12T09:21:32.795Z,12.00
2022-12-12T09:24:00.045Z,12.55
2022-12-12T09:26:27.596Z,12.20
2022-12-12T09:28:54.222Z,13.00
2022-12-12T09:31:21.587Z,12.18
2022-12-12T09:33:48.999Z,11.63
2022-12-12T09:36:15.681Z,12.48
2022-12-12T09:38:42.787Z,12.38
2022-12-12T09:41:09.247Z,12.88
2022-12-12T09:44:09.753Z,13.23
2022-12-12T09:46:39.633Z,11.98
2022-12-12T09:49:15.055Z,11.70
2022-12-12T09:51:49.372Z,12.38
2022-12-12T09:54:20.571Z,12.20
2022-12-12T09:56:56.377Z,12.85
2022-12-12T09:59:43.136Z,11.40
2022-12-12T10:02:09.680Z,12.00
2022-12-12T10:05:07.307Z,12.10
2022-12-12T10:07:44.019Z,12.05
2022-12-12T10:10:24.554Z,12.40
2022-12-12T10:12:52.123Z,11.93
2022-12-12T10:15:27.181Z,12.45
2022-12-12T10:17:56.884Z,11.70
2022-12-12T10:20:27.592Z,11.13
2022-12-12T10:23:12.677Z,11.32
2022-12-12T10:25:56.691Z,11.15
2022-12-12T10:31:06.318Z,10.30
2022-12-12T10:33:44.713Z,11.13
2022-12-12T10:36:29.220Z,11.07
2022-12-12T10:39:14.215Z,11.65
2022-12-12T10:42:01.889Z,10.80
2022-12-12T10:44:50.277Z,11.20
2022-12-12T10:47:16.915Z,11.23
2022-12-12T10:49:43.451Z,11.20
2022-12-12T10:52:22.030Z,12.40
2022-12-12T10:54:52.485Z,11.43
2022-12-12T10:57:27.624Z,11.40
2022-12-12T10:59:57.377Z,10.90
2022-12-12T11:02:39.164Z,11.43
2022-12-12T11:05:05.765Z,11.98
2022-12-12T11:07:38.809Z,11.82
2022-12-12T11:10:34.361Z,11.32
2022-12-12T11:13:13.598Z,14.13
2022-12-12T11:15:51.005Z,11.70
2022-12-12T11:18:23.381Z,11.45
2022-12-12T11:21:11.990Z,11.70
2022-12-12T11:23:41.149Z,11.65
2022-12-12T11:26:18.930Z,14.85
2022-12-12T11:28:54.077Z,14.38
2022-12-12T11:31:24.664Z,13.13
2022-12-12T11:33:57.533Z,20.15
2022-12-12T11:36:38.226Z,13.32
2022-12-12T11:39:36.495Z,15.50
2022-12-12T11:42:17.520Z,11.00
2022-12-12T11:44:45.142Z,11.23
2022-12-12T11:47:38.678Z,12.30
2022-12-12T11:50:22.655Z,11.82
2022-12-12T11:52:52.050Z,12.10
2022-12-12T11:55:41.866Z,13.20
2022-12-12T11:58:14.914Z,10.80
2022-12-12T12:00:54.968Z,11.30
2022-12-12T12:03:27.053Z,11.40
2022-12-12T12:06:23.871Z,11.13
2022-12-12T12:09:17.405Z,11.27
2022-12-12T12:12:08.732Z,12.20
2022-12-12T12:14:50.745Z,12.73
2022-12-12T12:17:44.535Z,12.65
2022-12-12T12:20:36.022Z,13.27
2022-12-12T12:23:21.386Z,13.80
2022-12-12T12:25:53.920Z,14.13
2022-12-12T12:28:51.200Z,14.77
2022-12-12T12:31:55.153Z,14.90
2022-12-12T12:34:25.040Z,14.10
2022-12-12T12:36:59.912Z,15.23
2022-12-12T12:39:58.763Z,14.75
2022-12-12T12:42:28.266Z,13.77
2022-12-12T12:45:27.640Z,14.20
2022-12-12T12:48:13.401Z,14.40
2022-12-12T12:50:39.859Z,14.20
2022-12-12T12:53:35.293Z,13.55
2022-12-12T12:56:13.982Z,13.23
2022-12-12T12:58:45.463Z,13.82
2022-12-12T13:01:23.127Z,14.63
2022-12-12T13:04:12.605Z,13.98
2022-12-12T13:06:47.974Z,13.27
2022-12-12T13:09:48.667Z,12.65
2022-12-12T13:12:37.222Z,12.05
2022-12-12T13:15:22.394Z,12.50
2022-12-12T13:18:10.605Z,11.85
2022-12-12T13:20:43.312Z,11.95
2022-12-12T13:23:17.935Z,11.63
2022-12-12T13:26:00.991Z,11.18
2022-12-12T13:28:34.242Z,11.75
2022-12-12T13:31:28.105Z,10.93
2022-12-12T13:34:04.861Z,10.60
2022-12-12T13:36:38.357Z,11.50
2022-12-12T13:39:07.397Z,12.25
2022-12-12T13:42:01.228Z,12.07
2022-12-12T13:44:49.566Z,11.88
2022-12-12T13:47:22.144Z,11.85
2022-12-12T13:50:09.975Z,13.90
2022-12-12T13:52:43.781Z,14.35
2022-12-12T13:55:13.091Z,13.88
2022-12-12T13:58:08.066Z,15.10
2022-12-12T14:00:39.705Z,15.95
2022-12-12T14:03:12.473Z,16.38
2022-12-12T14:05:43.021Z,17.98
2022-12-12T14:08:12.357Z,16.55
2022-12-12T14:10:49.414Z,16.58
2022-12-12T14:13:17.711Z,18.23
2022-12-12T14:15:46.617Z,17.85
2022-12-12T14:18:27.105Z,17.20
2022-12-12T14:21:16.692Z,17.08
2022-12-12T14:23:45.652Z,19.05
2022-12-12T14:26:27.467Z,19.25
2022-12-12T14:29:18.675Z,17.02
2022-12-12T14:32:14.906Z,16.73
2022-12-12T14:34:50.174Z,18.20
2022-12-12T14:37:35.862Z,16.75
2022-12-12T14:40:18.454Z,16.08
2022-12-12T14:43:18.725Z,15.93
2022-12-12T14:45:50.441Z,16.13
2022-12-12T14:48:30.086Z,16.10
2022-12-12T14:51:12.764Z,17.35
2022-12-12T14:53:43.515Z,16.55
2022-12-12T14:56:16.471Z,17.35
2022-12-12T14:58:47.115Z,17.17
2022-12-12T15:01:16.906Z,17.52
2022-12-12T15:03:50.924Z,18.38
2022-12-12T15:06:23.735Z,20.58
2022-12-12T15:08:52.322Z,22.57
2022-12-12T15:11:30.453Z,27.23
2022-12-12T15:13:59.556Z,22.33
2022-12-12T15:16:48.994Z,20.17
2022-12-12T15:19:19.332Z,20.70
2022-12-12T15:21:47.090Z,21.67
2022-12-12T15:24:20.946Z,19.42
2022-12-12T15:26:49.002Z,19.40
2022-12-12T15:29:22.552Z,20.45
2022-12-12T15:32:02.282Z,18.52
2022-12-12T15:34:42.648Z,19.52
2022-12-12T15:37:30.130Z,19.38
2022-12-12T15:40:01.562Z,20.92
2022-12-12T15:42:29.057Z,23.05
2022-12-12T15:44:56.264Z,23.30
2022-12-12T15:47:22.874Z,23.98
2022-12-12T15:49:51.726Z,28.67
2022-12-12T15:52:30.342Z,25.42
2022-12-12T15:54:58.954Z,24.23
2022-12-12T15:57:31.385Z,24.55
2022-12-12T16:00:05.377Z,24.85
2022-12-12T16:02:35.414Z,24.58
2022-12-12T16:05:19.624Z,28.33
2022-12-12T16:07:46.155Z,25.42
2022-12-12T16:10:15.782Z,26.95
2022-12-12T16:13:14.339Z,25.23
2022-12-12T16:15:40.832Z,23.50
2022-12-12T16:18:17.720Z,22.42
2022-12-12T16:20:53.846Z,22.30
2022-12-12T16:23:41.340Z,20.90
2022-12-12T16:26:11.021Z,22.42
2022-12-12T16:28:37.788Z,22.60
2022-12-12T16:31:15.960Z,22.23
2022-12-12T16:33:43.182Z,23.55
2022-12-12T16:36:14.902Z,23.75
2022-12-12T16:38:43.629Z,22.35
2022-12-12T16:41:17.030Z,22.77
2022-12-12T16:43:44.768Z,23.10
2022-12-12T16:46:31.562Z,23.35
2022-12-12T16:49:04.262Z,22.05
2022-12-12T16:51:33.598Z,21.13
2022-12-12T16:54:00.619Z,21.05
2022-12-12T16:56:27.270Z,21.08
2022-12-12T16:58:56.035Z,22.67
2022-12-12T17:01:23.139Z,23.25
2022-12-12T17:03:49.904Z,23.83
2022-12-12T17:06:16.514Z,23.83
2022-12-12T17:08:43.056Z,23.95
2022-12-12T17:11:11.180Z,22.35
2022-12-12T17:13:42.734Z,23.30
2022-12-12T17:16:09.493Z,24.05
2022-12-12T17:18:36.489Z,22.45
2022-12-12T17:21:03.051Z,24.02
2022-12-12T17:23:30.075Z,23.20
2022-12-12T17:26:03.147Z,23.38
2022-12-12T17:28:32.446Z,23.10
2022-12-12T17:30:59.098Z,23.73
2022-12-12T17:33:26.096Z,25.55
2022-12-12T17:36:01.087Z,25.35
2022-12-12T17:38:27.704Z,26.00
2022-12-12T17:40:56.647Z,26.35
2022-12-12T17:43:24.699Z,28.65
2022-12-12T17:46:02.875Z,29.35
2022-12-12T17:48:30.770Z,30.45
2022-12-12T17:50:59.205Z,32.13
2022-12-12T17:53:26.511Z,32.50
2022-12-12T17:56:01.659Z,30.77
2022-12-12T17:58:36.516Z,31.52
2022-12-12T18:01:16.050Z,32.28
2022-12-12T18:03:43.631Z,28.88
2022-12-12T18:06:10.500Z,30.50
2022-12-12T18:08:38.075Z,32.08
2022-12-12T18:11:09.595Z,31.08
2022-12-12T18:13:38.700Z,27.88
2022-12-12T18:16:06.924Z,27.55
2022-12-12T18:18:34.147Z,28.05
2022-12-12T18:21:10.550Z,25.83
2022-12-12T18:23:39.922Z,26.35
2022-12-12T18:26:17.243Z,25.90
2022-12-12T18:28:49.826Z,26.65
2022-12-12T18:31:16.612Z,29.35
2022-12-12T18:33:43.506Z,29.17
2022-12-12T18:36:14.762Z,30.27
2022-12-12T18:38:47.421Z,29.27
2022-12-12T18:41:15.057Z,30.27
2022-12-12T18:43:41.765Z,30.85
2022-12-12T18:46:11.331Z,31.42
2022-12-12T18:48:40.324Z,31.77
2022-12-12T18:51:09.464Z,30.98
2022-12-12T18:53:36.682Z,30.55
2022-12-12T18:56:11.147Z,28.67
2022-12-12T18:58:38.473Z,27.83
2022-12-12T19:01:07.155Z,26.83
2022-12-12T19:03:34.914Z,27.52
2022-12-12T19:06:10.527Z,26.13
2022-12-12T19:08:37.574Z,25.58
2022-12-12T19:11:04.420Z,26.15
2022-12-12T19:13:31.309Z,25.25
2022-12-12T19:16:07.720Z,24.83
2022-12-12T19:18:34.765Z,25.45
2022-12-12T19:21:24.303Z,24.98
2022-12-12T19:23:51.607Z,23.70
2022-12-12T19:26:27.823Z,24.52
2022-12-12T19:28:59.869Z,23.35
2022-12-12T19:31:26.471Z,26.02
2022-12-12T19:33:53.651Z,26.45
2022-12-12T19:36:23.128Z,24.58
2022-12-12T19:38:50.521Z,25.60
2022-12-12T19:41:19.053Z,27.35
2022-12-12T19:43:48.251Z,31.05
2022-12-12T19:46:26.340Z,30.92
2022-12-12T19:48:58.186Z,33.03
2022-12-12T19:51:26.471Z,30.73
2022-12-12T19:53:57.588Z,29.63
2022-12-12T19:56:30.859Z,28.08
2022-12-12T19:58:58.752Z,25.08
2022-12-12T20:01:34.280Z,23.48
2022-12-12T20:04:05.382Z,21.60
2022-12-12T20:06:46.951Z,22.08
2022-12-12T20:09:18.565Z,22.95
2022-12-12T20:11:45.561Z,21.67
2022-12-12T20:14:17.871Z,23.17
2022-12-12T20:16:45.067Z,23.23
2022-12-12T20:19:12.585Z,22.30
2022-12-12T20:24:31.418Z,20.25
2022-12-12T20:26:59.560Z,20.33
2022-12-12T20:29:26.730Z,18.88
2022-12-12T20:31:53.300Z,19.35
2022-12-12T20:34:24.668Z,19.83
2022-12-12T20:36:52.360Z,19.13
2022-12-12T20:39:21.804Z,21.52
2022-12-12T20:41:50.233Z,18.30
2022-12-12T20:44:16.966Z,18.48
2022-12-12T20:46:45.927Z,19.63
2022-12-12T20:49:15.804Z,19.83
2022-12-12T20:51:58.768Z,18.67
2022-12-12T20:54:27.794Z,19.35
2022-12-12T20:56:54.851Z,19.65
2022-12-12T20:59:21.570Z,19.42
2022-12-12T21:01:48.235Z,19.40
2022-12-12T21:04:15.415Z,19.58
2022-12-12T21:06:44.548Z,20.60
2022-12-12T21:09:13.917Z,18.52
2022-12-12T21:11:42.977Z,19.90
2022-12-12T21:14:09.705Z,20.15
2022-12-12T21:16:38.615Z,20.60
2022-12-12T21:19:08.585Z,20.55
2022-12-12T21:21:35.215Z,21.10
2022-12-12T21:24:02.387Z,20.10
2022-12-12T21:26:30.887Z,20.88
2022-12-12T21:28:59.848Z,20.42
2022-12-12T21:31:29.327Z,20.33
2022-12-12T21:33:56.829Z,21.20
2022-12-12T21:36:24.551Z,21.77
2022-12-12T21:38:52.869Z,22.27
2022-12-12T21:41:21.871Z,23.00
2022-12-12T21:43:49.141Z,21.35
2022-12-12T21:46:21.486Z,20.98
2022-12-12T21:49:11.853Z,21.02
2022-12-12T21:51:42.115Z,20.25
2022-12-12T21:54:10.090Z,20.02
2022-12-12T21:56:38.329Z,20.65
2022-12-12T21:59:05.048Z,20.00
2022-12-12T22:01:32.579Z,20.77
2022-12-12T22:04:00.233Z,19.73
2022-12-12T22:06:29.615Z,19.85
2022-12-12T22:08:57.194Z,20.25
2022-12-12T22:11:41.136Z,19.15
2022-12-12T22:14:10.945Z,19.08
2022-12-12T22:16:37.830Z,18.83
2022-12-12T22:19:10.491Z,18.85
2022-12-12T22:21:37.382Z,17.80
2022-12-12T22:24:04.974Z,18.23
2022-12-12T22:26:39.643Z,17.92
2022-12-12T22:29:09.605Z,17.98
2022-12-12T22:31:37.913Z,17.88
2022-12-12T22:34:07.189Z,17.80
2022-12-12T22:36:36.038Z,17.52
2022-12-12T22:39:03.781Z,17.98
2022-12-12T22:41:30.355Z,17.52
2022-12-12T22:43:59.336Z,18.83
2022-12-12T22:46:27.109Z,18.80
2022-12-12T22:48:55.719Z,18.42
2022-12-12T22:51:25.064Z,18.55
2022-12-12T22:53:52.207Z,18.77
2022-12-12T22:56:18.779Z,19.48
2022-12-12T22:58:45.378Z,19.48
2022-12-12T23:01:15.220Z,19.27
2022-12-12T23:03:42.710Z,18.95
2022-12-12T23:06:22.411Z,18.42
2022-12-12T23:08:58.450Z,18.25
2022-12-12T23:11:27.343Z,17.15
2022-12-12T23:13:56.596Z,17.27
2022-12-12T23:16:27.531Z,17.58
2022-12-12T23:18:54.659Z,17.42
2022-12-12T23:21:23.103Z,17.05
2022-12-12T23:23:51.173Z,17.90
2022-12-12T23:26:20.992Z,16.48
2022-12-12T23:28:48.044Z,16.42
2022-12-12T23:31:20.647Z,17.05
2022-12-12T23:33:48.158Z,17.10
2022-12-12T23:36:15.604Z,16.55
2022-12-12T23:38:42.327Z,16.40
2022-12-12T23:41:14.084Z,16.27
2022-12-12T23:43:40.871Z,16.23
2022-12-12T23:46:33.275Z,15.98
2022-12-12T23:49:03.097Z,15.75
2022-12-12T23:51:32.765Z,16.17
2022-12-12T23:54:01.710Z,15.73
2022-12-12T23:56:28.911Z,16.00
2022-12-12T23:58:56.814Z,16.13
